TSH weather

Tshikapa Airport
Tshikapa, Kasai-Occidental Province, Congo (Kinshasa)

Public forecast

Using degrees Celsius for public forecast. Weather courtesy of forecast.io.

Closest aviation weather report (METAR) to Tshikapa Airport

Report is more than 6 hours old.

Closest report is Dundo Airport, 57.8 nm (107.1 km) S. Retrieved 2019/10/14 13:00 UTC (12 hours ago):

FNDU 141300Z 00000KT 9999 SCT024 SCT030 FEW033CB 31/15 Q1015

Closest aviation forecast (TAF) to Tshikapa Airport

Closest forecast is Dundo Airport, 57.8 nm (107.1 km) S. Retrieved 2019-10-15 00:00 UTC (1 hour ago):

TAF FNDU 142300Z 1500/1512 VRB03KT 7000 SCT018 BKN025 PROB30 TEMPO 1501/1505 4000 +TSRA FEW015CB OVC020 BECMG 1510/1512 VRB02KT 6000